createdAt,value
2022-10-02T00:00:17.431Z,786
2022-10-02T00:02:18.275Z,589
2022-10-02T00:04:18.571Z,797
2022-10-02T00:06:17.608Z,787
2022-10-02T00:08:19.806Z,710
2022-10-02T00:10:17.588Z,852
2022-10-02T00:12:17.375Z,803
2022-10-02T00:14:18.414Z,784
2022-10-02T00:16:18.211Z,761
2022-10-02T00:18:18.159Z,685
2022-10-02T00:20:17.965Z,653
2022-10-02T00:22:17.746Z,837
2022-10-02T00:24:17.587Z,825
2022-10-02T00:26:17.415Z,735
2022-10-02T00:28:18.237Z,704
2022-10-02T00:30:17.963Z,715
2022-10-02T00:32:17.757Z,836
2022-10-02T00:34:17.527Z,765
2022-10-02T00:36:18.387Z,720
2022-10-02T00:38:18.166Z,686
2022-10-02T00:40:17.941Z,746
2022-10-02T00:42:17.954Z,782
2022-10-02T00:44:17.743Z,773
2022-10-02T00:46:17.510Z,486
2022-10-02T00:48:17.617Z,745
2022-10-02T00:50:17.570Z,610
2022-10-02T00:52:17.480Z,630
2022-10-02T00:54:18.279Z,768
2022-10-02T00:56:18.105Z,777
2022-10-02T00:58:17.980Z,735
2022-10-02T01:00:17.828Z,571
2022-10-02T01:02:17.774Z,640
2022-10-02T01:04:17.945Z,661
2022-10-02T01:06:17.730Z,669
2022-10-02T01:08:17.469Z,724
2022-10-02T01:10:18.315Z,685
2022-10-02T01:12:18.173Z,484
2022-10-02T01:14:17.538Z,746
2022-10-02T01:16:18.383Z,593
2022-10-02T01:18:18.305Z,786
2022-10-02T01:20:18.156Z,778
2022-10-02T01:22:17.945Z,662
2022-10-02T01:24:17.739Z,706
2022-10-02T01:26:17.784Z,705
2022-10-02T01:28:17.631Z,701
2022-10-02T01:30:17.419Z,581
2022-10-02T01:32:18.196Z,777
2022-10-02T01:34:17.919Z,652
2022-10-02T01:36:17.729Z,745
2022-10-02T01:38:17.550Z,734
2022-10-02T01:40:18.330Z,725
2022-10-02T01:42:18.240Z,639
2022-10-02T01:44:18.083Z,635
2022-10-02T01:46:17.927Z,777
2022-10-02T01:48:18.083Z,721
2022-10-02T01:50:18.034Z,597
2022-10-02T01:52:17.808Z,794
2022-10-02T01:54:17.566Z,739
2022-10-02T01:56:18.326Z,776
2022-10-02T01:58:18.147Z,554
2022-10-02T02:00:18.084Z,646
2022-10-02T02:02:17.954Z,632
2022-10-02T02:04:17.929Z,729
2022-10-02T02:06:18.124Z,759
2022-10-02T02:08:18.187Z,656
2022-10-02T02:10:18.221Z,783
2022-10-02T02:12:18.142Z,733
2022-10-02T02:14:18.128Z,499
2022-10-02T02:16:17.976Z,731
2022-10-02T02:18:17.983Z,790
2022-10-02T02:20:17.785Z,575
2022-10-02T02:22:17.515Z,675
2022-10-02T02:24:18.265Z,559
2022-10-02T02:26:18.221Z,520
2022-10-02T02:28:18.205Z,697
2022-10-02T02:30:18.057Z,613
2022-10-02T02:32:17.893Z,735
2022-10-02T02:34:18.080Z,573
2022-10-02T02:36:17.881Z,691
2022-10-02T02:38:17.672Z,560
2022-10-02T02:40:17.952Z,715
2022-10-02T02:42:18.512Z,614
2022-10-02T02:44:18.227Z,777
2022-10-02T02:46:18.085Z,658
2022-10-02T02:48:18.284Z,772
2022-10-02T02:50:18.159Z,754
2022-10-02T02:52:18.054Z,687
2022-10-02T02:54:17.903Z,684
2022-10-02T02:56:17.822Z,795
2022-10-02T02:58:17.684Z,728
2022-10-02T03:00:17.547Z,730
2022-10-02T03:02:18.383Z,741
2022-10-02T03:04:18.216Z,613
2022-10-02T03:06:18.003Z,603
2022-10-02T03:08:18.048Z,653
2022-10-02T03:10:17.896Z,724
2022-10-02T03:12:18.061Z,718
2022-10-02T03:14:17.850Z,705
2022-10-02T03:16:17.650Z,728
2022-10-02T03:18:17.715Z,806
2022-10-02T03:20:17.517Z,748
2022-10-02T03:22:17.362Z,834
2022-10-02T03:24:18.183Z,881
2022-10-02T03:26:18.107Z,697
2022-10-02T03:28:27.313Z,804
2022-10-02T03:30:18.242Z,667
2022-10-02T03:32:18.056Z,630
2022-10-02T03:34:18.103Z,881
2022-10-02T03:36:17.919Z,691
2022-10-02T03:38:18.193Z,803
2022-10-02T03:40:18.252Z,703
2022-10-02T03:42:18.318Z,703
2022-10-02T03:44:18.145Z,696
2022-10-02T03:46:18.184Z,834
2022-10-02T03:48:18.160Z,763
2022-10-02T03:50:17.937Z,706
2022-10-02T03:52:18.058Z,701
2022-10-02T03:54:17.891Z,653
2022-10-02T03:56:17.693Z,718
2022-10-02T03:58:17.590Z,820
2022-10-02T04:00:17.462Z,550
2022-10-02T04:02:18.221Z,790
2022-10-02T04:04:18.080Z,692
2022-10-02T04:06:18.109Z,713
2022-10-02T04:08:18.062Z,583
2022-10-02T04:10:18.152Z,723
2022-10-02T04:12:18.230Z,823
2022-10-02T04:14:18.095Z,669
2022-10-02T04:16:17.946Z,880
2022-10-02T04:18:17.951Z,659
2022-10-02T04:20:17.672Z,820
2022-10-02T04:22:17.408Z,796
2022-10-02T04:24:18.271Z,756
2022-10-02T04:26:17.706Z,715
2022-10-02T04:28:17.641Z,807
2022-10-02T04:30:17.554Z,699
2022-10-02T04:32:17.386Z,789
2022-10-02T04:34:18.219Z,681
2022-10-02T04:36:18.039Z,713
2022-10-02T04:38:17.836Z,690
2022-10-02T04:40:17.740Z,725
2022-10-02T04:42:17.528Z,740
2022-10-02T04:44:18.331Z,601
2022-10-02T04:46:18.109Z,756
2022-10-02T04:48:18.139Z,782
2022-10-02T04:50:17.927Z,704
2022-10-02T04:52:17.734Z,856
2022-10-02T04:54:17.584Z,670
2022-10-02T04:56:17.376Z,675
2022-10-02T04:58:18.184Z,634
2022-10-02T05:00:18.291Z,720
2022-10-02T05:02:18.509Z,634
2022-10-02T05:04:18.343Z,668
2022-10-02T05:06:18.144Z,745
2022-10-02T05:08:17.943Z,813
2022-10-02T05:10:17.734Z,617
2022-10-02T05:12:17.477Z,784
2022-10-02T05:14:18.204Z,609
2022-10-02T05:16:18.083Z,737
2022-10-02T05:18:18.242Z,577
2022-10-02T05:20:18.163Z,785
2022-10-02T05:22:18.253Z,778
2022-10-02T05:24:18.060Z,709
2022-10-02T05:26:17.847Z,720
2022-10-02T05:28:17.725Z,697
2022-10-02T05:30:17.537Z,842
2022-10-02T05:32:18.291Z,834
2022-10-02T05:34:18.144Z,829
2022-10-02T05:36:17.958Z,706
2022-10-02T05:38:17.665Z,891
2022-10-02T05:40:17.448Z,712
2022-10-02T05:42:18.243Z,762
2022-10-02T05:44:18.094Z,628
2022-10-02T05:46:18.034Z,867
2022-10-02T05:48:18.155Z,729
2022-10-02T05:50:18.285Z,742
2022-10-02T05:52:18.193Z,771
2022-10-02T05:54:17.945Z,849
2022-10-02T05:56:17.808Z,813
2022-10-02T05:58:17.677Z,737
2022-10-02T06:00:17.325Z,811
2022-10-02T06:02:17.526Z,777
2022-10-02T06:04:17.478Z,780
2022-10-02T06:06:18.269Z,897
2022-10-02T06:08:18.144Z,837
2022-10-02T06:10:17.969Z,735
2022-10-02T06:12:17.849Z,766
2022-10-02T06:14:17.897Z,740
2022-10-02T06:16:17.906Z,783
2022-10-02T06:18:17.924Z,727
2022-10-02T06:20:18.293Z,681
2022-10-02T06:22:17.258Z,761
2022-10-02T06:24:18.066Z,723
2022-10-02T06:26:17.923Z,711
2022-10-02T06:28:17.815Z,822
2022-10-02T06:30:18.173Z,857
2022-10-02T06:32:17.434Z,783
2022-10-02T06:34:17.485Z,727
2022-10-02T06:36:17.505Z,692
2022-10-02T06:38:18.292Z,775
2022-10-02T06:40:18.011Z,847
2022-10-02T06:42:17.731Z,782
2022-10-02T06:44:17.542Z,791
2022-10-02T06:46:18.362Z,614
2022-10-02T06:48:18.183Z,718
2022-10-02T06:50:17.987Z,682
2022-10-02T06:52:18.179Z,734
2022-10-02T06:54:18.100Z,647
2022-10-02T06:56:18.152Z,723
2022-10-02T06:58:18.029Z,584
2022-10-02T07:00:17.770Z,682
2022-10-02T07:02:17.614Z,791
2022-10-02T07:04:17.484Z,709
2022-10-02T07:06:18.291Z,830
2022-10-02T07:08:18.084Z,618
2022-10-02T07:10:17.924Z,834
2022-10-02T07:12:17.747Z,767
2022-10-02T07:14:17.465Z,706
2022-10-02T07:16:17.393Z,603
2022-10-02T07:18:17.424Z,712
2022-10-02T07:20:17.615Z,778
2022-10-02T07:22:39.883Z,726
2022-10-02T07:24:17.717Z,768
2022-10-02T07:26:17.602Z,787
2022-10-02T07:28:17.528Z,556
2022-10-02T07:30:17.350Z,807
2022-10-02T07:32:17.584Z,875
2022-10-02T07:34:17.498Z,859
2022-10-02T07:36:18.291Z,894
2022-10-02T07:38:17.577Z,782
2022-10-02T07:40:17.407Z,796
2022-10-02T07:42:17.635Z,897
2022-10-02T07:44:17.310Z,724
2022-10-02T07:46:17.741Z,829
2022-10-02T07:48:17.652Z,854
2022-10-02T07:50:17.505Z,809
2022-10-02T07:52:18.366Z,928
2022-10-02T07:54:18.135Z,892
2022-10-02T07:56:17.972Z,812
2022-10-02T07:58:17.757Z,909
2022-10-02T08:00:17.617Z,782
2022-10-02T08:02:17.484Z,933
2022-10-02T08:04:17.578Z,886
2022-10-02T08:06:17.885Z,650
2022-10-02T08:08:17.664Z,885
2022-10-02T08:10:17.452Z,799
2022-10-02T08:12:18.219Z,826
2022-10-02T08:14:18.059Z,903
2022-10-02T08:16:17.895Z,874
2022-10-02T08:18:33.470Z,856
2022-10-02T08:20:17.931Z,703
2022-10-02T08:22:18.203Z,831
2022-10-02T08:24:18.248Z,793
2022-10-02T08:26:18.072Z,957
2022-10-02T08:28:18.162Z,959
2022-10-02T08:30:18.113Z,938
2022-10-02T08:32:18.040Z,922
2022-10-02T08:34:17.844Z,920
2022-10-02T08:36:18.065Z,920
2022-10-02T08:38:18.141Z,910
2022-10-02T08:40:18.155Z,1014
2022-10-02T08:42:17.963Z,1042
2022-10-02T08:44:18.026Z,1083
2022-10-02T08:46:17.776Z,1010
2022-10-02T08:48:17.577Z,920
2022-10-02T08:50:17.382Z,1129
2022-10-02T08:52:18.253Z,996
2022-10-02T08:54:18.040Z,916
2022-10-02T08:56:20.225Z,953
2022-10-02T08:58:18.224Z,969
2022-10-02T09:00:18.047Z,992
2022-10-02T09:02:17.882Z,986
2022-10-02T09:04:17.712Z,1065
2022-10-02T09:06:17.621Z,943
2022-10-02T09:08:17.390Z,973
2022-10-02T09:10:18.302Z,1082
2022-10-02T09:12:18.209Z,1092
2022-10-02T09:14:18.084Z,1012
2022-10-02T09:16:18.361Z,964
2022-10-02T09:18:17.506Z,1073
2022-10-02T09:20:18.385Z,1140
2022-10-02T09:22:17.734Z,1024
2022-10-02T09:24:17.615Z,1104
2022-10-02T09:26:17.335Z,899
2022-10-02T09:28:18.153Z,1044
2022-10-02T09:30:18.125Z,1060
2022-10-02T09:32:18.140Z,941
2022-10-02T09:34:17.986Z,1130
2022-10-02T09:36:17.767Z,1130
2022-10-02T09:38:17.531Z,1089
2022-10-02T09:40:17.533Z,1127
2022-10-02T09:42:18.502Z,1025
2022-10-02T09:44:18.412Z,1023
2022-10-02T09:46:18.333Z,994
2022-10-02T09:48:18.157Z,924
2022-10-02T09:50:17.425Z,900
2022-10-02T09:52:18.206Z,1087
2022-10-02T09:54:17.979Z,1200
2022-10-02T09:56:17.916Z,1222
2022-10-02T09:58:17.769Z,974
2022-10-02T10:00:17.634Z,1155
2022-10-02T10:02:17.465Z,1091
2022-10-02T10:04:18.311Z,1036
2022-10-02T10:06:17.474Z,1109
2022-10-02T10:08:18.353Z,1015
2022-10-02T10:10:18.204Z,1126
2022-10-02T10:12:17.924Z,1141
2022-10-02T10:14:17.675Z,900
2022-10-02T10:16:17.525Z,1065
2022-10-02T10:18:17.556Z,962
2022-10-02T10:20:17.875Z,1020
2022-10-02T10:22:17.777Z,1216
2022-10-02T10:24:17.496Z,1140
2022-10-02T10:26:18.232Z,1054
2022-10-02T10:28:18.108Z,1247
2022-10-02T10:30:17.871Z,1172
2022-10-02T10:32:17.597Z,1058
2022-10-02T10:34:17.366Z,950
2022-10-02T10:36:18.188Z,1219
2022-10-02T10:38:18.900Z,865
2022-10-02T10:40:17.494Z,1103
2022-10-02T10:42:18.349Z,1176
2022-10-02T10:44:18.137Z,1121
2022-10-02T10:46:17.996Z,1151
2022-10-02T10:48:17.797Z,977
2022-10-02T10:50:17.612Z,1093
2022-10-02T10:52:17.442Z,1068
2022-10-02T10:54:18.343Z,1111
2022-10-02T10:56:17.334Z,1110
2022-10-02T10:58:18.243Z,1146
2022-10-02T11:00:18.076Z,988
2022-10-02T11:02:18.017Z,1101
2022-10-02T11:04:17.871Z,1023
2022-10-02T11:06:17.698Z,1211
2022-10-02T11:08:17.492Z,970
2022-10-02T11:10:18.262Z,1006
2022-10-02T11:12:18.122Z,886
2022-10-02T11:14:17.938Z,1120
2022-10-02T11:16:17.762Z,887
2022-10-02T11:18:17.942Z,1022
2022-10-02T11:20:17.785Z,985
2022-10-02T11:22:17.599Z,1045
2022-10-02T11:24:17.418Z,913
2022-10-02T11:26:18.267Z,1042
2022-10-02T11:28:17.592Z,1014
2022-10-02T11:30:17.538Z,983
2022-10-02T11:32:18.242Z,962
2022-10-02T11:34:17.362Z,881
2022-10-02T11:36:18.195Z,944
2022-10-02T11:38:17.427Z,944
2022-10-02T11:40:17.428Z,1187
2022-10-02T11:42:17.703Z,1056
2022-10-02T11:44:17.653Z,1069
2022-10-02T11:46:17.977Z,1124
2022-10-02T11:48:17.841Z,1136
2022-10-02T11:50:17.581Z,1001
2022-10-02T11:52:17.427Z,1035
2022-10-02T11:54:18.216Z,1006
2022-10-02T11:56:18.029Z,1075
2022-10-02T11:58:18.149Z,1084
2022-10-02T12:00:18.061Z,1070
2022-10-02T12:02:18.016Z,1196
2022-10-02T12:04:17.915Z,944
2022-10-02T12:06:17.727Z,1049
2022-10-02T12:08:18.114Z,1180
2022-10-02T12:10:17.894Z,841
2022-10-02T12:12:17.660Z,1174
2022-10-02T12:14:17.470Z,1182
2022-10-02T12:16:18.349Z,911
2022-10-02T12:18:21.748Z,1061
2022-10-02T12:20:17.978Z,986
2022-10-02T12:22:17.401Z,974
2022-10-02T12:24:18.214Z,1019
2022-10-02T12:26:17.966Z,1215
2022-10-02T12:28:18.074Z,964
2022-10-02T12:30:17.901Z,1005
2022-10-02T12:32:17.720Z,954
2022-10-02T12:34:18.073Z,896
2022-10-02T12:36:17.919Z,998
2022-10-02T12:38:17.701Z,1198
2022-10-02T12:40:17.543Z,1022
2022-10-02T12:42:18.357Z,974
2022-10-02T12:44:18.197Z,851
2022-10-02T12:46:17.995Z,1145
2022-10-02T12:48:17.779Z,1212
2022-10-02T12:50:17.515Z,924
2022-10-02T12:52:18.249Z,935
2022-10-02T12:54:18.025Z,1141
2022-10-02T12:56:17.855Z,1159
2022-10-02T12:58:17.654Z,910
2022-10-02T13:00:17.414Z,1021
2022-10-02T13:02:18.321Z,1019
2022-10-02T13:04:18.403Z,1011
2022-10-02T13:06:18.252Z,1079
2022-10-02T13:08:18.132Z,1100
2022-10-02T13:10:17.981Z,1160
2022-10-02T13:12:17.823Z,1159
2022-10-02T13:14:17.642Z,1182
2022-10-02T13:16:17.528Z,1093
2022-10-02T13:18:17.472Z,1103
2022-10-02T13:20:18.362Z,932
2022-10-02T13:22:18.086Z,1177
2022-10-02T13:24:17.920Z,928
2022-10-02T13:26:17.736Z,1151
2022-10-02T13:28:17.573Z,951
2022-10-02T13:30:17.506Z,1001
2022-10-02T13:32:18.247Z,1015
2022-10-02T13:34:18.115Z,1146
2022-10-02T13:36:17.897Z,1008
2022-10-02T13:38:17.713Z,1129
2022-10-02T13:40:17.520Z,1093
2022-10-02T13:42:17.849Z,1030
2022-10-02T13:44:17.678Z,1050
2022-10-02T13:46:17.544Z,1092
2022-10-02T13:48:17.447Z,1150
2022-10-02T13:50:18.312Z,1087
2022-10-02T13:52:17.307Z,1043
2022-10-02T13:54:18.047Z,1050
2022-10-02T13:56:17.834Z,956
2022-10-02T13:58:17.609Z,939
2022-10-02T14:00:17.392Z,1096
2022-10-02T14:02:18.262Z,1005
2022-10-02T14:04:18.134Z,1045
2022-10-02T14:06:17.910Z,1087
2022-10-02T14:08:17.734Z,991
2022-10-02T14:10:17.659Z,1067
2022-10-02T14:12:18.232Z,946
2022-10-02T14:14:18.107Z,845
2022-10-02T14:16:18.365Z,1045
2022-10-02T14:18:17.311Z,1192
2022-10-02T14:20:18.080Z,915
2022-10-02T14:22:17.848Z,1052
2022-10-02T14:24:17.809Z,1232
2022-10-02T14:26:17.899Z,1010
2022-10-02T14:28:17.906Z,1057
2022-10-02T14:30:17.737Z,1244
2022-10-02T14:32:17.482Z,1143
2022-10-02T14:34:18.294Z,796
2022-10-02T14:36:17.490Z,1065
2022-10-02T14:38:18.243Z,982
2022-10-02T14:40:18.286Z,843
2022-10-02T14:42:18.079Z,1053
2022-10-02T14:44:17.854Z,1096
2022-10-02T14:46:17.664Z,968
2022-10-02T14:48:17.532Z,1079
2022-10-02T14:50:18.276Z,1018
2022-10-02T14:52:18.117Z,964
2022-10-02T14:54:17.937Z,1104
2022-10-02T14:56:17.817Z,994
2022-10-02T14:58:17.695Z,968
2022-10-02T15:00:17.535Z,1140
2022-10-02T15:02:17.439Z,1043
2022-10-02T15:04:17.454Z,993
2022-10-02T15:06:18.306Z,1218
2022-10-02T15:08:18.056Z,849
2022-10-02T15:10:17.860Z,1073
2022-10-02T15:12:17.635Z,1130
2022-10-02T15:14:17.446Z,1042
2022-10-02T15:16:18.984Z,951
2022-10-02T15:18:18.141Z,1239
2022-10-02T15:20:17.874Z,970
2022-10-02T15:22:17.678Z,870
2022-10-02T15:24:17.506Z,1014
2022-10-02T15:26:18.541Z,1080
2022-10-02T15:28:35.570Z,992
2022-10-02T15:30:17.628Z,1082
2022-10-02T15:32:17.436Z,1014
2022-10-02T15:34:18.317Z,911
2022-10-02T15:36:18.143Z,1803
2022-10-02T15:38:17.926Z,1269
2022-10-02T15:40:17.755Z,1501
2022-10-02T15:42:17.531Z,1342
2022-10-02T15:44:18.358Z,1391
2022-10-02T15:46:18.320Z,1385
2022-10-02T15:48:18.187Z,1204
2022-10-02T15:50:17.429Z,1197
2022-10-02T15:52:17.390Z,1439
2022-10-02T15:54:18.167Z,1064
2022-10-02T15:56:18.287Z,1161
2022-10-02T15:58:17.683Z,1166
2022-10-02T16:00:17.621Z,1219
2022-10-02T16:02:17.517Z,1182
2022-10-02T16:04:17.435Z,1321
2022-10-02T16:06:17.572Z,1283
2022-10-02T16:08:17.377Z,1252
2022-10-02T16:10:17.634Z,1869
2022-10-02T16:12:17.543Z,0
2022-10-02T16:14:18.374Z,1371
2022-10-02T16:16:18.143Z,1378
2022-10-02T16:18:18.144Z,1241
2022-10-02T16:20:17.583Z,1655
2022-10-02T16:22:18.141Z,1288
2022-10-02T16:24:18.297Z,1423
2022-10-02T16:26:18.202Z,1470
2022-10-02T16:28:18.116Z,1488
2022-10-02T16:30:18.030Z,1167
2022-10-02T16:32:17.983Z,1238
2022-10-02T16:34:17.752Z,1438
2022-10-02T16:36:17.534Z,1063
2022-10-02T16:38:18.352Z,1349
2022-10-02T16:40:18.174Z,1325
2022-10-02T16:42:18.013Z,1232
2022-10-02T16:44:17.822Z,1484
2022-10-02T16:46:17.673Z,1283
2022-10-02T16:48:17.513Z,1063
2022-10-02T16:50:17.437Z,1389
2022-10-02T16:52:18.299Z,1417
2022-10-02T16:54:17.832Z,1436
2022-10-02T16:56:17.873Z,1559
2022-10-02T16:58:17.977Z,1399
2022-10-02T17:00:17.734Z,1480
2022-10-02T17:02:19.015Z,1468
2022-10-02T17:04:18.073Z,1465
2022-10-02T17:06:17.879Z,1360
2022-10-02T17:08:17.741Z,1229
2022-10-02T17:10:19.105Z,1273
2022-10-02T17:12:18.177Z,1307
2022-10-02T17:14:18.418Z,1445
2022-10-02T17:16:21.203Z,1428
2022-10-02T17:18:17.414Z,1232
2022-10-02T17:20:18.313Z,1296
2022-10-02T17:22:18.218Z,1144
2022-10-02T17:24:18.194Z,1434
2022-10-02T17:26:18.393Z,1306
2022-10-02T17:28:18.385Z,1572
2022-10-02T17:30:18.240Z,1488
2022-10-02T17:32:17.426Z,1555
2022-10-02T17:34:17.547Z,1616
2022-10-02T17:36:18.324Z,1590
2022-10-02T17:38:18.160Z,1456
2022-10-02T17:40:18.332Z,1576
2022-10-02T17:42:18.139Z,1126
2022-10-02T17:44:18.045Z,1484
2022-10-02T17:46:17.827Z,1211
2022-10-02T17:48:17.584Z,1305
2022-10-02T17:50:17.645Z,1358
2022-10-02T17:52:17.386Z,1314
2022-10-02T17:54:18.340Z,1508
2022-10-02T17:56:18.200Z,1425
2022-10-02T17:58:18.024Z,1450
2022-10-02T18:00:17.942Z,1070
2022-10-02T18:02:18.264Z,1507
2022-10-02T18:04:18.085Z,1457
2022-10-02T18:06:17.876Z,1350
2022-10-02T18:08:17.628Z,1098
2022-10-02T18:10:18.318Z,1460
2022-10-02T18:12:18.117Z,1469
2022-10-02T18:14:17.964Z,1397
2022-10-02T18:16:17.853Z,1315
2022-10-02T18:18:17.854Z,1280
2022-10-02T18:20:17.641Z,1481
2022-10-02T18:22:17.629Z,1245
2022-10-02T18:24:17.464Z,1434
2022-10-02T18:26:19.293Z,1322
2022-10-02T18:28:18.177Z,1323
2022-10-02T18:30:18.009Z,1288
2022-10-02T18:32:17.861Z,1158
2022-10-02T18:34:17.788Z,1405
2022-10-02T18:36:18.001Z,1245
2022-10-02T18:38:17.836Z,1233
2022-10-02T18:40:17.757Z,1150
2022-10-02T18:42:17.642Z,1207
2022-10-02T18:44:17.537Z,1149
2022-10-02T18:46:18.299Z,1022
2022-10-02T18:48:19.746Z,1056
2022-10-02T18:50:17.737Z,1107
2022-10-02T18:52:17.526Z,1238
2022-10-02T18:54:17.784Z,1176
2022-10-02T18:56:17.661Z,1118
2022-10-02T18:58:17.433Z,1168
2022-10-02T19:00:18.241Z,1057
2022-10-02T19:02:18.182Z,1154
2022-10-02T19:04:18.079Z,1175
2022-10-02T19:06:17.911Z,889
2022-10-02T19:08:17.681Z,1059
2022-10-02T19:10:17.414Z,1018
2022-10-02T19:12:18.192Z,1144
2022-10-02T19:14:18.125Z,959
2022-10-02T19:16:18.214Z,995
2022-10-02T19:18:18.092Z,1078
2022-10-02T19:20:17.849Z,1036
2022-10-02T19:22:17.649Z,1127
2022-10-02T19:24:17.457Z,1109
2022-10-02T19:26:18.197Z,968
2022-10-02T19:28:18.021Z,1069
2022-10-02T19:30:17.831Z,1010
2022-10-02T19:32:17.630Z,755
2022-10-02T19:34:17.418Z,777
2022-10-02T19:36:18.295Z,1055
2022-10-02T19:38:18.281Z,971
2022-10-02T19:40:17.378Z,971
2022-10-02T19:42:17.454Z,882
2022-10-02T19:44:18.301Z,889
2022-10-02T19:46:18.256Z,828
2022-10-02T19:48:18.427Z,928
2022-10-02T19:50:18.225Z,744
2022-10-02T19:52:18.155Z,830
2022-10-02T19:54:18.000Z,804
2022-10-02T19:56:17.782Z,869
2022-10-02T19:58:17.756Z,887
2022-10-02T20:00:17.595Z,869
2022-10-02T20:02:18.423Z,835
2022-10-02T20:04:18.275Z,788
2022-10-02T20:06:18.106Z,880
2022-10-02T20:08:17.937Z,848
2022-10-02T20:10:17.698Z,801
2022-10-02T20:12:17.518Z,800
2022-10-02T20:14:18.374Z,816
2022-10-02T20:16:17.493Z,919
2022-10-02T20:18:17.497Z,784
2022-10-02T20:20:18.291Z,861
2022-10-02T20:22:17.589Z,948
2022-10-02T20:24:17.411Z,900
2022-10-02T20:26:18.218Z,835
2022-10-02T20:28:18.123Z,856
2022-10-02T20:30:18.007Z,736
2022-10-02T20:32:17.806Z,811
2022-10-02T20:34:17.687Z,878
2022-10-02T20:36:17.523Z,724
2022-10-02T20:38:18.451Z,826
2022-10-02T20:40:18.220Z,741
2022-10-02T20:42:18.024Z,882
2022-10-02T20:44:17.842Z,884
2022-10-02T20:46:17.915Z,934
2022-10-02T20:48:17.684Z,857
2022-10-02T20:50:17.574Z,840
2022-10-02T20:52:17.350Z,736
2022-10-02T20:54:17.591Z,754
2022-10-02T20:56:17.550Z,833
2022-10-02T20:58:17.657Z,837
2022-10-02T21:00:17.381Z,779
2022-10-02T21:02:18.203Z,865
2022-10-02T21:04:18.275Z,808
2022-10-02T21:06:18.189Z,741
2022-10-02T21:08:17.569Z,883
2022-10-02T21:10:18.435Z,687
2022-10-02T21:12:18.269Z,864
2022-10-02T21:14:18.141Z,797
2022-10-02T21:16:18.388Z,701
2022-10-02T21:18:18.323Z,895
2022-10-02T21:20:27.682Z,853
2022-10-02T21:22:18.222Z,794
2022-10-02T21:24:17.993Z,768
2022-10-02T21:26:17.906Z,795
2022-10-02T21:28:17.763Z,846
2022-10-02T21:30:17.618Z,791
2022-10-02T21:32:17.526Z,678
2022-10-02T21:34:17.516Z,726
2022-10-02T21:36:17.580Z,870
2022-10-02T21:38:17.332Z,876
2022-10-02T21:40:17.519Z,873
2022-10-02T21:42:18.254Z,761
2022-10-02T21:44:18.163Z,787
2022-10-02T21:46:18.047Z,647
2022-10-02T21:48:17.901Z,839
2022-10-02T21:50:17.780Z,789
2022-10-02T21:52:17.570Z,885
2022-10-02T21:54:18.339Z,905
2022-10-02T21:56:18.161Z,823
2022-10-02T21:58:17.991Z,827
2022-10-02T22:00:17.838Z,800
2022-10-02T22:02:18.068Z,884
2022-10-02T22:04:18.080Z,909
2022-10-02T22:06:17.958Z,958
2022-10-02T22:08:17.886Z,994
2022-10-02T22:10:17.710Z,932
2022-10-02T22:12:17.527Z,1131
2022-10-02T22:14:18.632Z,818
2022-10-02T22:16:17.665Z,889
2022-10-02T22:18:17.674Z,987
2022-10-02T22:20:17.386Z,960
2022-10-02T22:22:17.390Z,1084
2022-10-02T22:24:18.222Z,1039
2022-10-02T22:26:18.146Z,958
2022-10-02T22:28:18.009Z,901
2022-10-02T22:30:17.859Z,895
2022-10-02T22:32:17.706Z,1116
2022-10-02T22:34:20.291Z,762
2022-10-02T22:36:17.642Z,828
2022-10-02T22:38:17.472Z,997
2022-10-02T22:40:18.269Z,995
2022-10-02T22:42:18.133Z,967
2022-10-02T22:44:17.960Z,891
2022-10-02T22:46:17.969Z,820
2022-10-02T22:48:17.845Z,896
2022-10-02T22:50:17.568Z,923
2022-10-02T22:52:17.360Z,771
2022-10-02T22:54:18.042Z,828
2022-10-02T22:56:17.862Z,841
2022-10-02T22:58:17.720Z,748
2022-10-02T23:00:17.531Z,854
2022-10-02T23:02:18.319Z,953
2022-10-02T23:04:18.187Z,884
2022-10-02T23:06:17.996Z,792
2022-10-02T23:08:18.296Z,806
2022-10-02T23:10:18.102Z,714
2022-10-02T23:12:18.294Z,862
2022-10-02T23:14:18.049Z,854
2022-10-02T23:16:17.858Z,837
2022-10-02T23:18:17.885Z,674
2022-10-02T23:20:17.690Z,880
2022-10-02T23:22:17.803Z,853
2022-10-02T23:24:17.738Z,850
2022-10-02T23:26:17.417Z,848
2022-10-02T23:28:18.443Z,789
2022-10-02T23:30:18.311Z,764
2022-10-02T23:32:18.118Z,714
2022-10-02T23:34:18.011Z,800
2022-10-02T23:36:17.900Z,820
2022-10-02T23:38:17.848Z,717
2022-10-02T23:40:17.653Z,687
2022-10-02T23:42:17.608Z,656
2022-10-02T23:44:17.448Z,633
2022-10-02T23:46:18.274Z,710
2022-10-02T23:48:18.096Z,794
2022-10-02T23:50:17.842Z,814
2022-10-02T23:52:17.707Z,687
2022-10-02T23:54:17.791Z,729
2022-10-02T23:56:17.598Z,515
2022-10-02T23:58:17.481Z,611
